Manistee, MI (49660)

3:35 AM EDT on September 01, 2015 (GMT -0400)
MesoWest | | Change Station
CLOSE
Current Station
Personal Weather Station
Location: Filer City, MI
Elevation: 659 ft
Nearby Weather Stations

Elev 659 ft 44.22 °N, 86.31 °W | Updated 35 minutes ago

Clear
Clear
61 °F
Feels Like 61 °F
N
3
Wind Variable Wind from South
Gusts 6.0 mph

Today
High -- | Low -- °F
--% Chance of Precip.
Yesterday
High -- | Low -- °F
Precip. -- in
7:07 AM 8:21 PM
Waning Gibbous, 91% visible
Pressure 30.05 in
Visibility 4.0 miles
Clouds Clear
Dew Point 58 °F
Humidity 90%
Rainfall in
Snow Depth Not available.
UV 0 out of 12
Pollen 10.90 out of 12
Air Quality Not available.
Flu Activity Not available.
METAR KMBL 010715Z AUTO 11003KT 4SM CLR 16/14 A3005 RMK AO1
Pressure 30.05 in
Visibility 4.0 miles
Clouds Clear
Dew Point 58 °F
Humidity 90%
Rainfall in
Snow Depth Not available.
UV 0 out of 12
Pollen 10.90 out of 12
Air Quality Not available.
Flu Activity Not available.
METAR KMBL 010715Z AUTO 11003KT 4SM CLR 16/14 A3005 RMK AO1
Nowcast | as of 3:00 am EDT on September 1, 2015

At 4 am...clear. Areas of fog. Temperature 64. South winds 6 mph. At 6 am...clear. Areas of fog. Temperature 64. South winds 6 mph. At 8 am...clear. Areas of fog. Temperature 65. South winds 6 mph. At 10 am...mostly clear. Temperature 71. South winds 7 mph.

×

10-Day Weather Forecast

×

Almanac

Astronomy

Sep. 01, 2015 Rise Set
Actual Time
Civil Twilight
Nautical Twilight
Astronomical Twilight
Moon
Length of Visible Light
Length of Day
Tomorrow will be .
, % of the Moon is Illuminated

Today's Extremes

State Highs State Lows

Community

WunderPhotos

Upload Photos

1,851,488 photos uploaded!

WunderBlogs® & News

Nearby

Air Quality

  Air Quality AQ Index Pollutant
Not available.

Snow Depth

Station Depth Elevation

Earthquake Activity

City Distance Mag. Time & Date
Minimum magnitude displayed is 2.5.

Coastal Water Temperatures

Place Temperature

Stations

Nearby Weather Stations

Station Location Temp. Windchill Dew Point Humidity Wind Precip. Elev Updated Type